Time;durP1;ratioP1;P1;durP2;ratioP2;P2;SDS_P1;SDS_P2;PMS_P1;PMS_P2;Temp;Humidity;BMP_temperature;BMP_pressure;BME280_temperature;BME280_humidity;BME280_pressure;Samples;Min_cycle;Max_cycle;Signal;HPM_P1;HPM_P2
2023/04/21 00:01:58;;;;;;;;;;;;;;;5.90;nan;100206.03;5030695;28;19939;-83
2023/04/21 00:04:23;;;;;;;;;;;;;;;5.94;nan;100204.84;5037008;28;19921;-83
2023/04/21 00:06:49;;;;;;;;;;;;;;;5.97;nan;100204.56;5039586;28;19932;-84
2023/04/21 00:09:14;;;;;;;;;;;;;;;5.96;nan;100197.69;5040443;28;19928;-83
2023/04/21 00:11:40;;;;;;;;;;;;;;;5.97;nan;100198.50;5042614;28;19924;-83
2023/04/21 00:14:05;;;;;;;;;;;;;;;5.96;nan;100197.69;5028577;28;19917;-83
2023/04/21 00:16:30;;;;;;;;;;;;;;;5.90;nan;100196.34;5034592;28;19924;-83
2023/04/21 00:18:55;;;;;;;;;;;;;;;5.87;nan;100195.78;5031043;28;19927;-82
2023/04/21 00:21:20;;;;;;;;;;;;;;;5.86;nan;100205.44;5031209;28;20367;-82
2023/04/21 00:23:46;;;;;;;;;;;;;;;5.76;nan;100201.94;5028948;28;19921;-82
2023/04/21 00:26:11;;;;;;;;;;;;;;;5.67;nan;100205.31;5034798;28;19917;-83
2023/04/21 00:28:36;;;;;;;;;;;;;;;5.57;nan;100202.63;5032787;28;20298;-82
2023/04/21 00:31:01;;;;;;;;;;;;;;;5.52;nan;100199.56;5029828;28;19916;-82
2023/04/21 00:33:26;;;;;;;;;;;;;;;5.51;nan;100200.53;5029948;28;19928;-83
2023/04/21 00:35:53;;;;;;;;;;;;;;;5.50;nan;100202.31;5031927;28;20047;-83
2023/04/21 00:38:18;;;;;;;;;;;;;;;5.46;nan;100193.03;5019492;28;20476;-83
2023/04/21 00:40:43;;;;;;;;;;;;;;;5.46;nan;100197.47;5029016;28;20019;-82
2023/04/21 00:43:08;;;;;;;;;;;;;;;5.45;nan;100196.59;5029120;28;19940;-82
2023/04/21 00:45:34;;;;;;;;;;;;;;;5.42;nan;100193.44;5031459;28;19917;-82
2023/04/21 00:48:00;;;;;;;;;;;;;;;5.35;nan;100193.09;5010653;28;19917;-83
2023/04/21 00:50:25;;;;;;;;;;;;;;;5.30;nan;100190.84;5033762;28;19999;-82
2023/04/21 00:52:50;;;;;;;;;;;;;;;5.30;nan;100195.25;5033368;28;19917;-82
2023/04/21 00:55:15;;;;;;;;;;;;;;;5.37;nan;100195.59;5033314;28;20004;-82
2023/04/21 00:57:41;;;;;;;;;;;;;;;5.41;nan;100194.38;5031380;28;19917;-82
2023/04/21 01:00:07;;;;;;;;;;;;;;;5.41;nan;100184.72;5025727;28;19921;-82
2023/04/21 01:02:35;;;;;;;;;;;;;;;5.49;nan;100186.72;5032985;28;20020;-83
2023/04/21 01:05:00;;;;;;;;;;;;;;;5.57;nan;100193.94;5022135;28;20510;-84
2023/04/21 01:07:25;;;;;;;;;;;;;;;5.66;nan;100191.38;5021556;28;19923;-83
2023/04/21 01:09:50;;;;;;;;;;;;;;;5.82;nan;100190.09;5015146;28;19917;-82
2023/04/21 01:12:16;;;;;;;;;;;;;;;5.88;nan;100185.16;5031852;28;19917;-82
2023/04/21 01:14:41;;;;;;;;;;;;;;;5.97;nan;100188.81;5027872;28;19924;-83
2023/04/21 01:17:06;;;;;;;;;;;;;;;6.00;nan;100188.56;5030493;28;19924;-82
2023/04/21 01:19:38;;;;;;;;;;;;;;;6.02;nan;100183.19;5032940;28;19925;-83
2023/04/21 01:22:05;;;;;;;;;;;;;;;6.05;nan;100186.38;5042605;28;20586;-82
2023/04/21 01:24:41;;;;;;;;;;;;;;;6.08;nan;100193.19;5018643;28;20298;-83
2023/04/21 01:27:14;;;;;;;;;;;;;;;6.13;nan;100189.19;5039401;28;19917;-82
2023/04/21 01:29:40;;;;;;;;;;;;;;;6.18;nan;100186.16;5025140;28;19913;-83
2023/04/21 01:32:07;;;;;;;;;;;;;;;6.30;nan;100202.66;5030493;28;19924;-83
2023/04/21 01:34:32;;;;;;;;;;;;;;;6.25;nan;100189.94;5032418;28;19916;-83
2023/04/21 01:36:58;;;;;;;;;;;;;;;6.23;nan;100193.66;5019548;28;19959;-83
2023/04/21 01:39:23;;;;;;;;;;;;;;;6.22;nan;100192.81;5020444;28;19920;-84
2023/04/21 01:41:48;;;;;;;;;;;;;;;6.19;nan;100187.81;5023915;28;20321;-83
2023/04/21 01:44:13;;;;;;;;;;;;;;;6.13;nan;100181.31;5039680;28;19920;-83
2023/04/21 01:46:38;;;;;;;;;;;;;;;6.09;nan;100176.44;5032900;28;19917;-83
2023/04/21 01:49:04;;;;;;;;;;;;;;;6.05;nan;100177.66;5032330;28;20298;-85
2023/04/21 01:51:30;;;;;;;;;;;;;;;6.03;nan;100180.44;5031718;28;19924;-84
2023/04/21 01:53:55;;;;;;;;;;;;;;;6.02;nan;100181.38;5032098;28;19924;-83
2023/04/21 01:56:20;;;;;;;;;;;;;;;6.05;nan;100182.91;5032467;28;19913;-82
2023/04/21 01:58:45;;;;;;;;;;;;;;;6.09;nan;100182.53;5033647;28;19916;-83
2023/04/21 02:01:10;;;;;;;;;;;;;;;6.10;nan;100175.47;5034148;28;20319;-82
2023/04/21 02:03:35;;;;;;;;;;;;;;;6.09;nan;100174.66;5031675;28;19971;-83
2023/04/21 02:06:01;;;;;;;;;;;;;;;6.12;nan;100187.50;5040909;28;20429;-82
2023/04/21 02:08:26;;;;;;;;;;;;;;;6.16;nan;100182.84;5030861;28;19924;-82
2023/04/21 02:10:51;;;;;;;;;;;;;;;6.13;nan;100180.47;5029959;28;19917;-83
2023/04/21 02:13:16;;;;;;;;;;;;;;;6.06;nan;100176.72;5031008;28;19920;-84
2023/04/21 02:15:41;;;;;;;;;;;;;;;5.96;nan;100179.31;5028095;28;19990;-83
2023/04/21 02:18:07;;;;;;;;;;;;;;;5.87;nan;100180.03;5027666;28;19920;-82
2023/04/21 02:20:32;;;;;;;;;;;;;;;5.80;nan;100184.16;5031461;28;19928;-83
2023/04/21 02:22:57;;;;;;;;;;;;;;;5.71;nan;100183.94;5019479;28;20100;-83
2023/04/21 02:25:22;;;;;;;;;;;;;;;5.60;nan;100181.41;5028764;28;20000;-81
2023/04/21 02:27:47;;;;;;;;;;;;;;;5.52;nan;100184.66;5017725;28;19943;-81
2023/04/21 02:30:13;;;;;;;;;;;;;;;5.43;nan;100180.16;5035673;28;19952;-81
2023/04/21 02:32:38;;;;;;;;;;;;;;;5.31;nan;100181.19;5032690;28;19917;-83
2023/04/21 02:35:03;;;;;;;;;;;;;;;5.26;nan;100183.34;5032977;28;19920;-81
2023/04/21 02:37:28;;;;;;;;;;;;;;;5.19;nan;100190.06;5031797;28;19924;-83
2023/04/21 02:39:54;;;;;;;;;;;;;;;5.18;nan;100186.63;5035739;28;19920;-86
2023/04/21 02:42:19;;;;;;;;;;;;;;;5.09;nan;100188.19;5029577;28;19924;-83
2023/04/21 02:44:44;;;;;;;;;;;;;;;5.02;nan;100191.44;5030928;28;20024;-83
2023/04/21 02:47:09;;;;;;;;;;;;;;;4.93;nan;100190.38;5030772;28;19917;-86
2023/04/21 02:49:38;;;;;;;;;;;;;;;4.87;nan;100183.84;5017568;28;20047;-86
2023/04/21 02:52:03;;;;;;;;;;;;;;;4.81;nan;100194.00;5024431;28;20432;-83
2023/04/21 02:54:29;;;;;;;;;;;;;;;4.78;nan;100202.94;5019249;28;19948;-86
2023/04/21 02:56:54;;;;;;;;;;;;;;;4.81;nan;100196.59;5034466;28;19923;-86
2023/04/21 02:59:19;;;;;;;;;;;;;;;4.82;nan;100199.13;5028516;28;19996;-83
2023/04/21 03:01:45;;;;;;;;;;;;;;;4.78;nan;100196.88;5026263;28;19917;-83
2023/04/21 03:04:11;;;;;;;;;;;;;;;4.73;nan;100194.59;5033757;28;19949;-83
2023/04/21 03:06:36;;;;;;;;;;;;;;;4.71;nan;100188.66;5029295;28;20413;-83
2023/04/21 03:09:02;;;;;;;;;;;;;;;4.72;nan;100185.09;5030508;28;19917;-83
2023/04/21 03:11:27;;;;;;;;;;;;;;;4.80;nan;100193.16;5030946;28;19925;-83
2023/04/21 03:13:52;;;;;;;;;;;;;;;4.85;nan;100185.75;5031057;28;19917;-82
2023/04/21 03:16:18;;;;;;;;;;;;;;;4.89;nan;100184.56;5028197;28;19917;-84
2023/04/21 03:18:43;;;;;;;;;;;;;;;4.95;nan;100185.84;5043398;28;19932;-84
2023/04/21 03:21:09;;;;;;;;;;;;;;;5.00;nan;100183.69;5030909;28;19921;-84
2023/04/21 03:23:34;;;;;;;;;;;;;;;5.16;nan;100172.81;5016396;28;20012;-84
2023/04/21 03:25:59;;;;;;;;;;;;;;;5.19;nan;100176.97;5039635;28;19917;-85
2023/04/21 03:28:24;;;;;;;;;;;;;;;5.23;nan;100179.19;5036476;28;19949;-84
2023/04/21 03:30:49;;;;;;;;;;;;;;;5.26;nan;100178.13;5033686;28;19917;-84
2023/04/21 03:33:15;;;;;;;;;;;;;;;5.26;nan;100176.31;5032360;28;19917;-84
2023/04/21 03:35:40;;;;;;;;;;;;;;;5.24;nan;100180.03;5036262;28;19921;-84
2023/04/21 03:38:05;;;;;;;;;;;;;;;5.18;nan;100170.88;5021663;28;19931;-84
2023/04/21 03:40:30;;;;;;;;;;;;;;;5.15;nan;100173.78;5039062;28;20405;-83
2023/04/21 03:42:55;;;;;;;;;;;;;;;5.12;nan;100168.75;5030884;28;19917;-83
2023/04/21 03:45:21;;;;;;;;;;;;;;;5.08;nan;100175.22;5041043;28;19917;-83
2023/04/21 03:47:47;;;;;;;;;;;;;;;4.97;nan;100178.69;5031400;28;20008;-82
2023/04/21 03:50:12;;;;;;;;;;;;;;;4.86;nan;100182.22;5034694;28;19921;-83
2023/04/21 03:52:37;;;;;;;;;;;;;;;4.78;nan;100179.34;5030030;28;20360;-84
2023/04/21 03:55:03;;;;;;;;;;;;;;;4.79;nan;100188.91;5039810;28;19913;-83
2023/04/21 03:57:29;;;;;;;;;;;;;;;4.84;nan;100183.28;5038894;28;20378;-83
2023/04/21 03:59:54;;;;;;;;;;;;;;;4.91;nan;100181.84;5036720;28;19928;-82
2023/04/21 04:02:19;;;;;;;;;;;;;;;4.98;nan;100180.38;5019885;28;20686;-83
2023/04/21 04:04:44;;;;;;;;;;;;;;;5.02;nan;100180.94;5035914;28;19932;-83
2023/04/21 04:07:10;;;;;;;;;;;;;;;5.05;nan;100175.44;5037803;28;19917;-84
2023/04/21 04:09:35;;;;;;;;;;;;;;;5.04;nan;100168.56;5037329;28;19952;-83
2023/04/21 04:12:02;;;;;;;;;;;;;;;5.06;nan;100166.66;5036273;28;20337;-84
2023/04/21 04:14:27;;;;;;;;;;;;;;;5.10;nan;100174.13;5004257;28;19923;-83
2023/04/21 04:16:52;;;;;;;;;;;;;;;5.16;nan;100178.03;5038878;28;20011;-83
2023/04/21 04:19:17;;;;;;;;;;;;;;;5.13;nan;100177.47;5032437;28;19957;-83
2023/04/21 04:21:42;;;;;;;;;;;;;;;5.11;nan;100180.22;5029786;28;19924;-83
2023/04/21 04:24:09;;;;;;;;;;;;;;;5.01;nan;100174.06;5032116;28;20010;-85
2023/04/21 04:26:37;;;;;;;;;;;;;;;5.06;nan;100177.13;5017466;28;19923;-84
2023/04/21 04:29:04;;;;;;;;;;;;;;;5.09;nan;100187.38;5033857;28;19923;-84
2023/04/21 04:31:29;;;;;;;;;;;;;;;5.02;nan;100191.44;5033933;28;19976;-84
2023/04/21 04:33:54;;;;;;;;;;;;;;;4.95;nan;100185.84;5025221;28;19952;-84
2023/04/21 04:36:20;;;;;;;;;;;;;;;4.88;nan;100189.91;5029896;28;19924;-84
2023/04/21 04:38:45;;;;;;;;;;;;;;;4.79;nan;100182.78;5045100;28;20024;-82
2023/04/21 04:41:11;;;;;;;;;;;;;;;4.71;nan;100180.78;5032087;28;19931;-82
2023/04/21 04:43:37;;;;;;;;;;;;;;;4.64;nan;100180.44;5026012;28;19924;-83
2023/04/21 04:46:03;;;;;;;;;;;;;;;4.61;nan;100182.50;5020860;28;19917;-82
2023/04/21 04:48:28;;;;;;;;;;;;;;;4.58;nan;100185.38;5026372;28;19970;-82
2023/04/21 04:50:54;;;;;;;;;;;;;;;4.66;nan;100177.72;5011979;28;19932;-83
2023/04/21 04:53:19;;;;;;;;;;;;;;;4.72;nan;100179.00;5032555;28;19917;-83
2023/04/21 04:55:45;;;;;;;;;;;;;;;4.80;nan;100180.06;5032382;28;19921;-82
2023/04/21 04:58:10;;;;;;;;;;;;;;;4.79;nan;100173.19;5031466;28;19917;-83
2023/04/21 05:00:35;;;;;;;;;;;;;;;4.89;nan;100181.94;5034735;28;19979;-83
2023/04/21 05:03:01;;;;;;;;;;;;;;;4.94;nan;100178.13;5027662;28;20480;-83
2023/04/21 05:05:26;;;;;;;;;;;;;;;4.86;nan;100187.44;5031986;28;19974;-83
2023/04/21 05:07:51;;;;;;;;;;;;;;;4.87;nan;100196.13;5020497;28;19951;-84
2023/04/21 05:10:16;;;;;;;;;;;;;;;4.89;nan;100199.47;5011247;28;20015;-83
2023/04/21 05:12:41;;;;;;;;;;;;;;;4.95;nan;100204.19;5011659;28;19929;-82
2023/04/21 05:15:07;;;;;;;;;;;;;;;4.94;nan;100196.47;5033529;28;19969;-84
2023/04/21 05:17:32;;;;;;;;;;;;;;;5.03;nan;100198.31;5030427;28;19917;-84
2023/04/21 05:19:58;;;;;;;;;;;;;;;5.09;nan;100198.66;5031510;28;19928;-83
2023/04/21 05:22:23;;;;;;;;;;;;;;;5.26;nan;100193.84;5022357;28;19955;-83
2023/04/21 05:24:48;;;;;;;;;;;;;;;5.40;nan;100203.19;5037996;28;19924;-83
2023/04/21 05:27:14;;;;;;;;;;;;;;;5.50;nan;100197.06;5018602;28;20272;-83
2023/04/21 05:29:39;;;;;;;;;;;;;;;5.54;nan;100201.09;5029601;28;19970;-84
2023/04/21 05:32:04;;;;;;;;;;;;;;;5.55;nan;100204.53;5028811;28;20054;-82
2023/04/21 05:34:29;;;;;;;;;;;;;;;5.64;nan;100197.72;5033311;28;19923;-83
2023/04/21 05:36:55;;;;;;;;;;;;;;;5.75;nan;100201.09;5031964;28;19917;-83
2023/04/21 05:39:20;;;;;;;;;;;;;;;5.85;nan;100192.47;5031449;28;19940;-83
2023/04/21 05:41:45;;;;;;;;;;;;;;;5.83;nan;100202.25;5013655;28;19917;-83
2023/04/21 05:44:10;;;;;;;;;;;;;;;5.87;nan;100206.28;5030368;28;20008;-84
2023/04/21 05:46:35;;;;;;;;;;;;;;;5.94;nan;100205.66;5031403;28;20371;-83
2023/04/21 05:49:01;;;;;;;;;;;;;;;6.06;nan;100193.28;5031545;28;19917;-83
2023/04/21 05:51:26;;;;;;;;;;;;;;;6.22;nan;100198.06;5031092;28;19921;-84
2023/04/21 05:53:51;;;;;;;;;;;;;;;6.28;nan;100208.03;5034744;28;19917;-83
2023/04/21 05:56:17;;;;;;;;;;;;;;;6.46;nan;100215.28;5030252;28;19929;-83
2023/04/21 05:58:42;;;;;;;;;;;;;;;6.60;nan;100207.03;5032063;28;19913;-82
2023/04/21 06:01:08;;;;;;;;;;;;;;;6.72;nan;100208.59;5017369;28;19928;-83
2023/04/21 06:03:33;;;;;;;;;;;;;;;6.83;nan;100214.72;5035466;28;19943;-83
2023/04/21 06:05:59;;;;;;;;;;;;;;;6.94;nan;100209.34;5028102;28;19917;-83
2023/04/21 06:08:24;;;;;;;;;;;;;;;6.89;nan;100212.38;5035083;28;19951;-83
2023/04/21 06:10:49;;;;;;;;;;;;;;;6.87;nan;100221.38;5032016;28;19999;-83
2023/04/21 06:13:15;;;;;;;;;;;;;;;6.85;nan;100223.28;5014117;28;19925;-83
2023/04/21 06:15:40;;;;;;;;;;;;;;;6.86;nan;100220.50;5031954;28;19917;-84
2023/04/21 06:18:05;;;;;;;;;;;;;;;6.86;nan;100223.13;5031194;28;19994;-84
2023/04/21 06:20:31;;;;;;;;;;;;;;;6.84;nan;100227.72;5039538;28;19921;-85
2023/04/21 06:22:56;;;;;;;;;;;;;;;6.88;nan;100228.28;5034866;28;20199;-84
2023/04/21 06:25:21;;;;;;;;;;;;;;;7.04;nan;100233.00;5030092;28;19920;-85
2023/04/21 06:27:46;;;;;;;;;;;;;;;7.20;nan;100242.03;5032782;28;20049;-84
2023/04/21 06:30:12;;;;;;;;;;;;;;;7.11;nan;100236.75;5040373;28;19924;-83
2023/04/21 06:32:40;;;;;;;;;;;;;;;7.28;nan;100232.63;5038805;28;19943;-84
2023/04/21 06:35:05;;;;;;;;;;;;;;;7.34;nan;100239.94;5038672;28;19943;-84
2023/04/21 06:37:31;;;;;;;;;;;;;;;7.53;nan;100234.69;5022806;28;20510;-84
2023/04/21 06:39:56;;;;;;;;;;;;;;;7.63;nan;100238.16;5036917;28;20147;-84
2023/04/21 06:42:21;;;;;;;;;;;;;;;7.90;nan;100236.59;5027377;28;20906;-84
2023/04/21 06:44:46;;;;;;;;;;;;;;;8.21;nan;100231.09;5033299;28;19920;-83
2023/04/21 06:47:11;;;;;;;;;;;;;;;8.40;nan;100225.78;5005094;28;19971;-84
2023/04/21 06:49:37;;;;;;;;;;;;;;;8.65;nan;100232.22;5028778;28;20092;-84
2023/04/21 06:52:05;;;;;;;;;;;;;;;8.83;nan;100231.41;5026421;28;19917;-83
2023/04/21 06:54:30;;;;;;;;;;;;;;;8.83;nan;100236.69;5023135;28;20342;-84
2023/04/21 06:56:56;;;;;;;;;;;;;;;8.84;nan;100233.91;5015464;28;19917;-84
2023/04/21 06:59:21;;;;;;;;;;;;;;;8.85;nan;100240.84;5029402;28;20359;-84
2023/04/21 07:01:50;;;;;;;;;;;;;;;8.90;nan;100240.41;5028003;28;20090;-84
2023/04/21 07:04:16;;;;;;;;;;;;;;;9.14;nan;100237.19;5028394;28;20039;-84
2023/04/21 07:06:42;;;;;;;;;;;;;;;9.48;nan;100228.59;5030725;28;20024;-84
2023/04/21 07:09:07;;;;;;;;;;;;;;;9.69;nan;100229.09;5028071;28;20195;-84
2023/04/21 07:11:32;;;;;;;;;;;;;;;9.73;nan;100225.16;5029012;28;19917;-84
2023/04/21 07:14:00;;;;;;;;;;;;;;;9.93;nan;100231.06;5033749;28;19913;-85
2023/04/21 07:16:26;;;;;;;;;;;;;;;10.32;nan;100229.84;5005128;28;19971;-85
2023/04/21 07:18:51;;;;;;;;;;;;;;;10.55;nan;100224.84;5030582;28;19917;-84
2023/04/21 07:21:16;;;;;;;;;;;;;;;10.55;nan;100223.00;5030701;28;19988;-84
2023/04/21 07:23:41;;;;;;;;;;;;;;;10.60;nan;100218.06;5040265;28;19917;-84
2023/04/21 07:26:06;;;;;;;;;;;;;;;10.78;nan;100214.53;5029726;28;20016;-84
2023/04/21 07:28:31;;;;;;;;;;;;;;;11.45;nan;100212.63;5028393;28;19929;-85
2023/04/21 07:30:57;;;;;;;;;;;;;;;12.05;nan;100211.44;5033870;28;19917;-86
2023/04/21 07:33:22;;;;;;;;;;;;;;;12.13;nan;100212.41;5012764;28;19964;-85
2023/04/21 07:35:47;;;;;;;;;;;;;;;12.22;nan;100214.06;5032084;28;20286;-85
2023/04/21 07:38:12;;;;;;;;;;;;;;;12.35;nan;100217.00;5031502;28;20341;-85
2023/04/21 07:40:37;;;;;;;;;;;;;;;12.50;nan;100214.47;5030287;28;19924;-84
2023/04/21 07:43:03;;;;;;;;;;;;;;;12.65;nan;100222.53;5019699;28;19917;-84
2023/04/21 07:45:28;;;;;;;;;;;;;;;12.59;nan;100223.22;5043425;28;20297;-84
2023/04/21 07:47:53;;;;;;;;;;;;;;;12.61;nan;100215.91;5033566;28;20236;-85
2023/04/21 07:50:18;;;;;;;;;;;;;;;12.26;nan;100220.69;5024884;28;19924;-84
2023/04/21 07:52:44;;;;;;;;;;;;;;;11.81;nan;100230.00;5042895;28;20401;-83
2023/04/21 07:55:09;;;;;;;;;;;;;;;11.73;nan;100222.91;5013567;28;19923;-83
2023/04/21 07:57:37;;;;;;;;;;;;;;;11.90;nan;100223.75;5011890;28;20329;-84
2023/04/21 08:00:03;;;;;;;;;;;;;;;12.46;nan;100221.94;5029284;28;19921;-84
2023/04/21 08:02:28;;;;;;;;;;;;;;;13.07;nan;100213.34;5028149;28;19917;-83
2023/04/21 08:04:53;;;;;;;;;;;;;;;13.29;nan;100217.88;5028576;28;19928;-83
2023/04/21 08:07:19;;;;;;;;;;;;;;;13.71;nan;100211.22;5029309;28;19924;-84
2023/04/21 08:09:44;;;;;;;;;;;;;;;14.06;nan;100206.22;5027326;28;19947;-83
2023/04/21 08:12:09;;;;;;;;;;;;;;;14.30;nan;100198.97;5029296;28;20342;-83
2023/04/21 08:14:35;;;;;;;;;;;;;;;14.91;nan;100204.06;5029234;28;20442;-83
2023/04/21 08:17:00;;;;;;;;;;;;;;;14.90;nan;100197.94;5028838;28;19917;-83
2023/04/21 08:19:25;;;;;;;;;;;;;;;15.15;nan;100194.91;5029908;28;19917;-85
2023/04/21 08:21:50;;;;;;;;;;;;;;;15.32;nan;100195.47;5031734;28;19916;-84
2023/04/21 08:24:15;;;;;;;;;;;;;;;15.14;nan;100190.59;5035334;28;20410;-84
2023/04/21 08:26:41;;;;;;;;;;;;;;;15.47;nan;100189.06;5042398;28;20004;-84
2023/04/21 08:29:08;;;;;;;;;;;;;;;15.76;nan;100187.28;5036208;28;20360;-84
2023/04/21 08:31:34;;;;;;;;;;;;;;;15.82;nan;100196.31;5032373;28;19917;-85
2023/04/21 08:34:00;;;;;;;;;;;;;;;16.37;nan;100183.94;5032301;28;20008;-84
2023/04/21 08:36:25;;;;;;;;;;;;;;;17.13;nan;100185.66;5026710;28;20371;-85
2023/04/21 08:38:51;;;;;;;;;;;;;;;17.60;nan;100187.31;5032347;28;19974;-85
2023/04/21 08:41:16;;;;;;;;;;;;;;;17.76;nan;100185.28;5011964;28;20013;-85
2023/04/21 08:43:41;;;;;;;;;;;;;;;17.81;nan;100182.84;5027060;28;19967;-85
2023/04/21 08:46:08;;;;;;;;;;;;;;;18.19;nan;100187.50;5038049;28;19931;-84
2023/04/21 08:48:37;;;;;;;;;;;;;;;18.97;nan;100186.56;5037535;28;19944;-85
2023/04/21 08:51:02;;;;;;;;;;;;;;;19.00;nan;100184.28;5015968;28;20003;-84
2023/04/21 08:53:28;;;;;;;;;;;;;;;19.66;nan;100182.97;5033371;28;19956;-83
2023/04/21 08:55:54;;;;;;;;;;;;;;;20.30;nan;100180.06;5032559;28;19923;-83
2023/04/21 08:58:21;;;;;;;;;;;;;;;20.70;nan;100185.00;5028938;28;19960;-83
2023/04/21 09:00:46;;;;;;;;;;;;;;;20.73;nan;100177.28;5030717;28;19927;-84
2023/04/21 09:03:11;;;;;;;;;;;;;;;21.40;nan;100170.97;5027519;28;19925;-84
2023/04/21 09:05:37;;;;;;;;;;;;;;;21.81;nan;100174.63;5013928;28;19940;-84
2023/04/21 09:08:12;;;;;;;;;;;;;;;22.44;nan;100162.25;5031822;28;19940;-83
2023/04/21 09:10:44;;;;;;;;;;;;;;;22.42;nan;100161.69;5032654;28;19921;-84
2023/04/21 09:13:09;;;;;;;;;;;;;;;22.96;nan;100169.44;5027816;28;19924;-84
2023/04/21 09:15:41;;;;;;;;;;;;;;;23.40;nan;100169.66;5036159;28;19916;-83
2023/04/21 09:18:10;;;;;;;;;;;;;;;23.51;nan;100166.88;5007325;28;19944;-83
2023/04/21 09:20:35;;;;;;;;;;;;;;;23.03;nan;100162.06;5031341;28;20374;-84
2023/04/21 09:23:03;;;;;;;;;;;;;;;22.82;nan;100163.53;5031994;28;19917;-82
2023/04/21 09:25:30;;;;;;;;;;;;;;;21.97;nan;100156.94;5031505;28;20394;-82
2023/04/21 09:27:56;;;;;;;;;;;;;;;21.63;nan;100156.72;5016873;28;19924;-83
2023/04/21 09:30:21;;;;;;;;;;;;;;;21.44;nan;100149.81;5035746;28;19925;-83
2023/04/21 09:32:47;;;;;;;;;;;;;;;22.16;nan;100144.16;5046180;28;19921;-82
2023/04/21 09:35:12;;;;;;;;;;;;;;;22.65;nan;100145.44;5033670;28;19924;-82
2023/04/21 09:37:37;;;;;;;;;;;;;;;23.15;nan;100145.81;5043291;28;19917;-83
2023/04/21 09:40:03;;;;;;;;;;;;;;;22.54;nan;100138.19;5035220;28;19928;-82
2023/04/21 09:42:29;;;;;;;;;;;;;;;22.69;nan;100141.19;5033649;28;20382;-82
2023/04/21 09:44:55;;;;;;;;;;;;;;;22.11;nan;100139.47;5036773;28;19997;-82
2023/04/21 09:47:21;;;;;;;;;;;;;;;22.42;nan;100140.13;5036816;28;19970;-84
2023/04/21 09:49:49;;;;;;;;;;;;;;;22.14;nan;100133.59;5035301;28;20367;-83
2023/04/21 09:52:14;;;;;;;;;;;;;;;22.23;nan;100131.41;5017525;28;19917;-83
2023/04/21 09:54:44;;;;;;;;;;;;;;;22.30;nan;100133.97;5035178;28;20351;-83
2023/04/21 09:57:12;;;;;;;;;;;;;;;22.95;nan;100125.47;5040578;28;19976;-83
2023/04/21 09:59:42;;;;;;;;;;;;;;;23.25;nan;100113.59;5031972;28;19932;-83
2023/04/21 10:02:08;;;;;;;;;;;;;;;23.50;nan;100126.66;5014026;28;19975;-83
2023/04/21 10:04:35;;;;;;;;;;;;;;;24.13;nan;100113.78;5030712;28;19917;-84
2023/04/21 10:07:00;;;;;;;;;;;;;;;24.08;nan;100101.03;5014272;28;19924;-84
2023/04/21 10:09:30;;;;;;;;;;;;;;;24.98;nan;100100.63;5014814;28;19917;-83
2023/04/21 10:11:56;;;;;;;;;;;;;;;25.46;nan;100101.56;5014316;28;19939;-85
2023/04/21 10:14:21;;;;;;;;;;;;;;;25.75;nan;100101.19;5032039;28;20349;-84
2023/04/21 10:17:02;;;;;;;;;;;;;;;25.74;nan;100102.25;5041568;28;19922;-83
2023/04/21 10:19:27;;;;;;;;;;;;;;;25.36;nan;100096.06;5012631;28;19966;-84
2023/04/21 10:21:58;;;;;;;;;;;;;;;25.09;nan;100094.22;5010996;28;20338;-84
2023/04/21 10:24:27;;;;;;;;;;;;;;;24.68;nan;100091.16;5027126;28;19924;-84
2023/04/21 10:26:52;;;;;;;;;;;;;;;24.43;nan;100096.28;5036268;28;19927;-85
2023/04/21 10:29:27;;;;;;;;;;;;;;;24.53;nan;100096.44;5014065;28;19917;-84
2023/04/21 10:31:52;;;;;;;;;;;;;;;24.25;nan;100090.13;5029549;28;19917;-84
2023/04/21 10:34:38;;;;;;;;;;;;;;;24.91;nan;100095.44;5031111;28;19923;-84
2023/04/21 10:37:03;;;;;;;;;;;;;;;25.20;nan;100079.72;5030572;28;19917;-84
2023/04/21 10:39:35;;;;;;;;;;;;;;;25.81;nan;100086.56;5034608;28;19952;-83
2023/04/21 10:42:12;;;;;;;;;;;;;;;26.87;nan;100079.06;5032999;28;20619;-84
2023/04/21 10:44:49;;;;;;;;;;;;;;;26.89;nan;100077.69;5033746;28;20554;-84
2023/04/21 10:47:23;;;;;;;;;;;;;;;27.01;nan;100071.19;5028534;28;19939;-83
2023/04/21 10:49:48;;;;;;;;;;;;;;;26.36;nan;100063.53;5035032;28;19917;-84
2023/04/21 10:52:15;;;;;;;;;;;;;;;26.61;nan;100067.38;5036775;28;20013;-83
2023/04/21 10:55:01;;;;;;;;;;;;;;;26.74;nan;100064.13;5037983;28;19979;-83
2023/04/21 10:57:30;;;;;;;;;;;;;;;27.54;nan;100066.25;5035563;28;20101;-82
2023/04/21 10:59:55;;;;;;;;;;;;;;;28.01;nan;100064.19;5029912;28;20064;-83
2023/04/21 11:02:20;;;;;;;;;;;;;;;27.87;nan;100055.84;5031662;28;20363;-83
2023/04/21 11:04:49;;;;;;;;;;;;;;;28.46;nan;100055.00;5033466;28;20003;-83
2023/04/21 11:07:16;;;;;;;;;;;;;;;29.09;nan;100053.44;5032162;28;20305;-84
2023/04/21 11:09:41;;;;;;;;;;;;;;;28.38;nan;100040.06;5013047;28;20655;-82
2023/04/21 11:12:08;;;;;;;;;;;;;;;28.06;nan;100043.25;5032871;28;20283;-83
2023/04/21 11:14:34;;;;;;;;;;;;;;;28.19;nan;100036.38;5037032;28;19953;-83
2023/04/21 11:17:00;;;;;;;;;;;;;;;28.14;nan;100025.53;5042911;28;19925;-83
2023/04/21 11:19:25;;;;;;;;;;;;;;;28.77;nan;100027.53;5041536;28;19924;-83
2023/04/21 11:21:53;;;;;;;;;;;;;;;28.51;nan;100025.06;5021631;28;19920;-83
2023/04/21 11:24:20;;;;;;;;;;;;;;;27.83;nan;100019.44;5039977;28;19916;-83
2023/04/21 11:26:45;;;;;;;;;;;;;;;26.72;nan;100009.34;5038647;28;19932;-83
2023/04/21 11:29:10;;;;;;;;;;;;;;;26.81;nan;100002.28;5036873;28;19921;-83
2023/04/21 11:31:37;;;;;;;;;;;;;;;27.65;nan;99994.50;5021922;28;19917;-83
2023/04/21 11:34:05;;;;;;;;;;;;;;;28.54;nan;99999.19;5036417;28;19916;-83
2023/04/21 11:36:41;;;;;;;;;;;;;;;29.39;nan;99993.22;5017765;28;19925;-83
2023/04/21 11:39:08;;;;;;;;;;;;;;;28.79;nan;99990.81;5037195;28;19944;-83
2023/04/21 11:41:35;;;;;;;;;;;;;;;27.79;nan;99991.19;5042275;28;20015;-83
2023/04/21 11:44:00;;;;;;;;;;;;;;;28.63;nan;99977.59;5016199;28;19952;-83
2023/04/21 11:46:26;;;;;;;;;;;;;;;28.73;nan;99983.78;5037323;28;19932;-83
2023/04/21 11:48:58;;;;;;;;;;;;;;;27.08;nan;99987.59;5020291;28;20361;-83
2023/04/21 11:51:23;;;;;;;;;;;;;;;27.95;nan;99987.31;5029859;28;19921;-83
2023/04/21 11:53:49;;;;;;;;;;;;;;;27.79;nan;99975.69;5035824;28;19958;-84
2023/04/21 11:56:20;;;;;;;;;;;;;;;27.22;nan;99987.84;5032287;28;19921;-84
2023/04/21 11:58:46;;;;;;;;;;;;;;;27.15;nan;99977.28;5027882;28;19916;-83
2023/04/21 12:01:14;;;;;;;;;;;;;;;26.57;nan;99968.66;5037183;28;19967;-82
2023/04/21 12:03:39;;;;;;;;;;;;;;;24.90;nan;99969.38;5017574;28;19917;-82
2023/04/21 12:06:06;;;;;;;;;;;;;;;25.69;nan;99967.63;5034596;28;19913;-82
2023/04/21 12:08:31;;;;;;;;;;;;;;;23.52;nan;99962.59;5031713;28;19924;-83
2023/04/21 12:10:58;;;;;;;;;;;;;;;22.64;nan;99960.53;5034424;28;20353;-82
2023/04/21 12:13:23;;;;;;;;;;;;;;;22.75;nan;99958.00;5033134;28;19974;-83
2023/04/21 12:15:48;;;;;;;;;;;;;;;22.34;nan;99958.16;5033948;28;20453;-83
2023/04/21 12:18:14;;;;;;;;;;;;;;;22.76;nan;99959.63;5032151;28;19913;-83
2023/04/21 12:20:48;;;;;;;;;;;;;;;23.65;nan;99969.50;5035713;28;19928;-82
2023/04/21 12:23:13;;;;;;;;;;;;;;;23.25;nan;99967.94;5034095;28;20374;-83
2023/04/21 12:25:38;;;;;;;;;;;;;;;22.89;nan;99965.50;5037004;28;19992;-83
2023/04/21 12:28:06;;;;;;;;;;;;;;;22.40;nan;99972.50;5034955;28;19971;-83
2023/04/21 12:30:31;;;;;;;;;;;;;;;22.12;nan;99976.03;5034160;28;19921;-83
2023/04/21 12:32:57;;;;;;;;;;;;;;;21.48;nan;99970.75;5015850;28;19921;-83
2023/04/21 12:35:22;;;;;;;;;;;;;;;21.41;nan;99971.69;5022614;28;19940;-83
2023/04/21 12:37:47;;;;;;;;;;;;;;;21.51;nan;99967.59;5037160;28;19923;-84
2023/04/21 12:40:12;;;;;;;;;;;;;;;21.58;nan;99974.47;5014679;28;19929;-83
2023/04/21 12:42:37;;;;;;;;;;;;;;;21.29;nan;99962.81;5017914;28;19999;-82
2023/04/21 12:45:04;;;;;;;;;;;;;;;21.28;nan;99969.22;5036561;28;19917;-83
2023/04/21 12:47:29;;;;;;;;;;;;;;;21.06;nan;99965.50;5035227;28;20353;-82
2023/04/21 12:49:55;;;;;;;;;;;;;;;20.55;nan;99963.25;5026990;28;19924;-83
2023/04/21 12:52:20;;;;;;;;;;;;;;;19.97;nan;99965.75;5027938;28;19917;-83
2023/04/21 12:54:45;;;;;;;;;;;;;;;19.66;nan;99959.50;5029122;28;19959;-83
2023/04/21 12:57:10;;;;;;;;;;;;;;;19.24;nan;99959.38;5036026;28;19948;-83
2023/04/21 12:59:35;;;;;;;;;;;;;;;19.47;nan;99958.69;5037061;28;19944;-82